Aviation Digital Data Service (ADDS)

Output produced by METARs form (1935 UTC 23 January 2019)
found at http://www.aviationweather.gov/metar/data/
 
METAR text: KJAX 231856Z 17018G27KT 10SM SCT035 SCT070 25/12 A3010 RMK AO2 PK WND 19027/1853 SLP193 T02500117
Conditions at: KJAX (JACKSONVILLE , FL, US) observed 1856 UTC 23 January 2019
Temperature: 25.0°C (77°F)
Dewpoint: 11.7°C (53°F) [RH = 43%]
Pressure (altimeter): 30.10 inches Hg (1019.4 mb)
[Sea-level pressure: 1019.3 mb]
Winds: from the S (170 degrees) at 21 MPH (18 knots; 9.3 m/s)
gusting to 31 MPH (27 knots; 13.9 m/s)
Visibility: 10 or more miles (16+ km)
Ceiling: at least 12,000 feet AGL
Clouds: scattered clouds at 3500 feet AGL
scattered clouds at 7000 feet AGL
Weather: no significant weather observed at this time

METAR text: KJAX 231756Z 17011KT 10SM FEW030 SCT070 25/13 A3015 RMK AO2 PRESFR SLP210 60000 T02500128 10250 20128 58035
Conditions at: KJAX (JACKSONVILLE , FL, US) observed 1756 UTC 23 January 2019
Temperature: 25.0°C (77°F)
Dewpoint: 12.8°C (55°F) [RH = 47%]
Pressure (altimeter): 30.15 inches Hg (1021.1 mb)
[Sea-level pressure: 1021.0 mb]
Winds: from the S (170 degrees) at 13 MPH (11 knots; 5.7 m/s)
Visibility: 10 or more miles (16+ km)
Ceiling: at least 12,000 feet AGL
Clouds: few clouds at 3000 feet AGL
scattered clouds at 7000 feet AGL
Weather: no significant weather observed at this time

METAR text: KJAX 231656Z 19014KT 10SM FEW030 SCT070 23/14 A3022 RMK AO2 SLP233 T02330139
Conditions at: KJAX (JACKSONVILLE , FL, US) observed 1656 UTC 23 January 2019
Temperature: 23.3°C (74°F)
Dewpoint: 13.9°C (57°F) [RH = 56%]
Pressure (altimeter): 30.22 inches Hg (1023.5 mb)
[Sea-level pressure: 1023.3 mb]
Winds: from the S (190 degrees) at 16 MPH (14 knots; 7.2 m/s)
Visibility: 10 or more miles (16+ km)
Ceiling: at least 12,000 feet AGL
Clouds: few clouds at 3000 feet AGL
scattered clouds at 7000 feet AGL
Weather: no significant weather observed at this time

METAR text: KJAX 231556Z 16010KT 10SM FEW040 BKN070 21/16 A3024 RMK AO2 RAE10 SLP242 P0000 T02110161
Conditions at: KJAX (JACKSONVILLE , FL, US) observed 1556 UTC 23 January 2019
Temperature: 21.1°C (70°F)
Dewpoint: 16.1°C (61°F) [RH = 73%]
Pressure (altimeter): 30.24 inches Hg (1024.1 mb)
[Sea-level pressure: 1024.2 mb]
Winds: from the SSE (160 degrees) at 12 MPH (10 knots; 5.1 m/s)
Visibility: 10 or more miles (16+ km)
Ceiling: 7000 feet AGL
Clouds: few clouds at 4000 feet AGL
broken clouds at 7000 feet AGL
Weather: no significant weather observed at this time

METAR text: KJAX 231456Z 15008G18KT 7SM -RA BKN035 BKN070 17/16 A3026 RMK AO2 RAB30 SLP246 P0000 60000 T01720156 56004
Conditions at: KJAX (JACKSONVILLE , FL, US) observed 1456 UTC 23 January 2019
Temperature: 17.2°C (63°F)
Dewpoint: 15.6°C (60°F) [RH = 90%]
Pressure (altimeter): 30.26 inches Hg (1024.8 mb)
[Sea-level pressure: 1024.6 mb]
Winds: from the SSE (150 degrees) at 9 MPH (8 knots; 4.1 m/s)
gusting to 21 MPH (18 knots; 9.3 m/s)
Visibility: 7 miles (11 km)
Ceiling: 3500 feet AGL
Clouds: broken clouds at 3500 feet AGL
broken clouds at 7000 feet AGL
Weather: -RA  (light rain)

METAR text: KJAX 231452Z 15009G18KT 4SM -RA BR BKN035 BKN070 17/16 A3026 RMK AO2 RAB30 P0000
Conditions at: KJAX (JACKSONVILLE , FL, US) observed 1452 UTC 23 January 2019
Temperature: 17.0°C (63°F)
Dewpoint: 16.0°C (61°F) [RH = 94%]
Pressure (altimeter): 30.26 inches Hg (1024.8 mb)
Winds: from the SSE (150 degrees) at 10 MPH (9 knots; 4.6 m/s)
gusting to 21 MPH (18 knots; 9.3 m/s)
Visibility: 4 miles ( 6 km)
Ceiling: 3500 feet AGL
Clouds: broken clouds at 3500 feet AGL
broken clouds at 7000 feet AGL
Weather: -RA BR  (light rain, mist)

METAR text: KJAX 231438Z 17012G19KT 2SM -RA BR BKN035 OVC070 17/15 A3027 RMK AO2 RAB30 P0000 T01720150
Conditions at: KJAX (JACKSONVILLE , FL, US) observed 1438 UTC 23 January 2019
Temperature: 17.2°C (63°F)
Dewpoint: 15.0°C (59°F) [RH = 87%]
Pressure (altimeter): 30.27 inches Hg (1025.1 mb)
Winds: from the S (170 degrees) at 14 MPH (12 knots; 6.2 m/s)
gusting to 22 MPH (19 knots; 9.8 m/s)
Visibility: 2.00 miles (3.22 km)
Ceiling: 3500 feet AGL
Clouds: broken clouds at 3500 feet AGL
overcast cloud deck at 7000 feet AGL
Weather: -RA BR  (light rain, mist)

METAR text: KJAX 231356Z 00000KT 10SM BKN070 17/14 A3025 RMK AO2 SLP245 T01720144
Conditions at: KJAX (JACKSONVILLE , FL, US) observed 1356 UTC 23 January 2019
Temperature: 17.2°C (63°F)
Dewpoint: 14.4°C (58°F) [RH = 84%]
Pressure (altimeter): 30.25 inches Hg (1024.5 mb)
[Sea-level pressure: 1024.5 mb]
Winds: calm
Visibility: 10 or more miles (16+ km)
Ceiling: 7000 feet AGL
Clouds: broken clouds at 7000 feet AGL
Weather: no significant weather observed at this time

METAR text: KJAX 231256Z 00000KT 10SM BKN070 13/12 A3027 RMK AO2 SLP249 T01330122
Conditions at: KJAX (JACKSONVILLE , FL, US) observed 1256 UTC 23 January 2019
Temperature: 13.3°C (56°F)
Dewpoint: 12.2°C (54°F) [RH = 93%]
Pressure (altimeter): 30.27 inches Hg (1025.1 mb)
[Sea-level pressure: 1024.9 mb]
Winds: calm
Visibility: 10 or more miles (16+ km)
Ceiling: 7000 feet AGL
Clouds: broken clouds at 7000 feet AGL
Weather: no significant weather observed at this time

METAR text: KJAX 231156Z 00000KT 10SM BKN065 13/12 A3027 RMK AO2 SLP250 7//// T01330122 10167 20117 56011
Conditions at: KJAX (JACKSONVILLE , FL, US) observed 1156 UTC 23 January 2019
Temperature: 13.3°C (56°F)
Dewpoint: 12.2°C (54°F) [RH = 93%]
Pressure (altimeter): 30.27 inches Hg (1025.1 mb)
[Sea-level pressure: 1025.0 mb]
Winds: calm
Visibility: 10 or more miles (16+ km)
Ceiling: 6500 feet AGL
Clouds: broken clouds at 6500 feet AGL
Weather: no significant weather observed at this time

METAR text: KJAX 231056Z 00000KT 10SM SCT046 OVC065 13/12 A3027 RMK AO2 SLP252 T01280117
Conditions at: KJAX (JACKSONVILLE , FL, US) observed 1056 UTC 23 January 2019
Temperature: 12.8°C (55°F)
Dewpoint: 11.7°C (53°F) [RH = 93%]
Pressure (altimeter): 30.27 inches Hg (1025.1 mb)
[Sea-level pressure: 1025.2 mb]
Winds: calm
Visibility: 10 or more miles (16+ km)
Ceiling: 6500 feet AGL
Clouds: scattered clouds at 4600 feet AGL
overcast cloud deck at 6500 feet AGL
Weather: no significant weather observed at this time

METAR text: KJAX 230956Z 00000KT 10SM OVC065 13/12 A3029 RMK AO2 SLP257 T01280117
Conditions at: KJAX (JACKSONVILLE , FL, US) observed 0956 UTC 23 January 2019
Temperature: 12.8°C (55°F)
Dewpoint: 11.7°C (53°F) [RH = 93%]
Pressure (altimeter): 30.29 inches Hg (1025.8 mb)
[Sea-level pressure: 1025.7 mb]
Winds: calm
Visibility: 10 or more miles (16+ km)
Ceiling: 6500 feet AGL
Clouds: overcast cloud deck at 6500 feet AGL
Weather: no significant weather observed at this time

METAR text: KJAX 230856Z 00000KT 10SM OVC065 12/11 A3030 RMK AO2 SLP261 T01220111 58009
Conditions at: KJAX (JACKSONVILLE , FL, US) observed 0856 UTC 23 January 2019
Temperature: 12.2°C (54°F)
Dewpoint: 11.1°C (52°F) [RH = 93%]
Pressure (altimeter): 30.30 inches Hg (1026.2 mb)
[Sea-level pressure: 1026.1 mb]
Winds: calm
Visibility: 10 or more miles (16+ km)
Ceiling: 6500 feet AGL
Clouds: overcast cloud deck at 6500 feet AGL
Weather: no significant weather observed at this time

METAR text: KJAX 230756Z 00000KT 10SM FEW045 BKN060 12/11 A3032 RMK AO2 SLP268 T01170111
Conditions at: KJAX (JACKSONVILLE , FL, US) observed 0756 UTC 23 January 2019
Temperature: 11.7°C (53°F)
Dewpoint: 11.1°C (52°F) [RH = 96%]
Pressure (altimeter): 30.32 inches Hg (1026.8 mb)
[Sea-level pressure: 1026.8 mb]
Winds: calm
Visibility: 10 or more miles (16+ km)
Ceiling: 6000 feet AGL
Clouds: few clouds at 4500 feet AGL
broken clouds at 6000 feet AGL
Weather: no significant weather observed at this time

METAR text: KJAX 230656Z 10005KT 10SM FEW045 BKN060 17/13 A3032 RMK AO2 SLP269 T01670133
Conditions at: KJAX (JACKSONVILLE , FL, US) observed 0656 UTC 23 January 2019
Temperature: 16.7°C (62°F)
Dewpoint: 13.3°C (56°F) [RH = 80%]
Pressure (altimeter): 30.32 inches Hg (1026.8 mb)
[Sea-level pressure: 1026.9 mb]
Winds: from the E (100 degrees) at 6 MPH (5 knots; 2.6 m/s)
Visibility: 10 or more miles (16+ km)
Ceiling: 6000 feet AGL
Clouds: few clouds at 4500 feet AGL
broken clouds at 6000 feet AGL
Weather: no significant weather observed at this time

METAR text: KJAX 230556Z 11006KT 10SM FEW060 16/13 A3033 RMK AO2 SLP270 T01610133 10167 20117 58012
Conditions at: KJAX (JACKSONVILLE , FL, US) observed 0556 UTC 23 January 2019
Temperature: 16.1°C (61°F)
Dewpoint: 13.3°C (56°F) [RH = 83%]
Pressure (altimeter): 30.33 inches Hg (1027.2 mb)
[Sea-level pressure: 1027.0 mb]
Winds: from the ESE (110 degrees) at 7 MPH (6 knots; 3.1 m/s)
Visibility: 10 or more miles (16+ km)
Ceiling: at least 12,000 feet AGL
Clouds: few clouds at 6000 feet AGL
Weather: no significant weather observed at this time

METAR text: KJAX 230456Z 08003KT 10SM FEW032 SCT044 BKN060 12/12 A3035 RMK AO2 SLP278 T01220117 402060022
Conditions at: KJAX (JACKSONVILLE , FL, US) observed 0456 UTC 23 January 2019
Temperature: 12.2°C (54°F)
Dewpoint: 11.7°C (53°F) [RH = 97%]
Pressure (altimeter): 30.35 inches Hg (1027.9 mb)
[Sea-level pressure: 1027.8 mb]
Winds: from the E (80 degrees) at 3 MPH (3 knots; 1.5 m/s)
Visibility: 10 or more miles (16+ km)
Ceiling: 6000 feet AGL
Clouds: few clouds at 3200 feet AGL
scattered clouds at 4400 feet AGL
broken clouds at 6000 feet AGL
Weather: no significant weather observed at this time

METAR text: KJAX 230356Z 00000KT 10SM BKN041 BKN060 13/12 A3036 RMK AO2 SLP282 T01280117
Conditions at: KJAX (JACKSONVILLE , FL, US) observed 0356 UTC 23 January 2019
Temperature: 12.8°C (55°F)
Dewpoint: 11.7°C (53°F) [RH = 93%]
Pressure (altimeter): 30.36 inches Hg (1028.2 mb)
[Sea-level pressure: 1028.2 mb]
Winds: calm
Visibility: 10 or more miles (16+ km)
Ceiling: 4100 feet AGL
Clouds: broken clouds at 4100 feet AGL
broken clouds at 6000 feet AGL
Weather: no significant weather observed at this time

METAR text: KJAX 230256Z 04003KT 10SM FEW046 BKN065 13/12 A3036 RMK AO2 SLP282 T01280117 58010
Conditions at: KJAX (JACKSONVILLE , FL, US) observed 0256 UTC 23 January 2019
Temperature: 12.8°C (55°F)
Dewpoint: 11.7°C (53°F) [RH = 93%]
Pressure (altimeter): 30.36 inches Hg (1028.2 mb)
[Sea-level pressure: 1028.2 mb]
Winds: from the NE (40 degrees) at 3 MPH (3 knots; 1.5 m/s)
Visibility: 10 or more miles (16+ km)
Ceiling: 6500 feet AGL
Clouds: few clouds at 4600 feet AGL
broken clouds at 6500 feet AGL
Weather: no significant weather observed at this time

METAR text: KJAX 230156Z 05003KT 10SM FEW035 SCT050 BKN065 13/12 A3037 RMK AO2 SLP285 T01280117
Conditions at: KJAX (JACKSONVILLE , FL, US) observed 0156 UTC 23 January 2019
Temperature: 12.8°C (55°F)
Dewpoint: 11.7°C (53°F) [RH = 93%]
Pressure (altimeter): 30.37 inches Hg (1028.5 mb)
[Sea-level pressure: 1028.5 mb]
Winds: from the NE (50 degrees) at 3 MPH (3 knots; 1.5 m/s)
Visibility: 10 or more miles (16+ km)
Ceiling: 6500 feet AGL
Clouds: few clouds at 3500 feet AGL
scattered clouds at 5000 feet AGL
broken clouds at 6500 feet AGL
Weather: no significant weather observed at this time

METAR text: KJAX 230056Z 02004KT 10SM BKN060 13/11 A3039 RMK AO2 SLP290 T01280111
Conditions at: KJAX (JACKSONVILLE , FL, US) observed 0056 UTC 23 January 2019
Temperature: 12.8°C (55°F)
Dewpoint: 11.1°C (52°F) [RH = 89%]
Pressure (altimeter): 30.39 inches Hg (1029.2 mb)
[Sea-level pressure: 1029.0 mb]
Winds: from the NNE (20 degrees) at 5 MPH (4 knots; 2.1 m/s)
Visibility: 10 or more miles (16+ km)
Ceiling: 6000 feet AGL
Clouds: broken clouds at 6000 feet AGL
Weather: no significant weather observed at this time

METAR text: KJAX 222356Z 03004KT 10SM SCT060 13/11 A3040 RMK AO2 SLP293 6//// T01330111 10206 20133 56003
Conditions at: KJAX (JACKSONVILLE , FL, US) observed 2356 UTC 22 January 2019
Temperature: 13.3°C (56°F)
Dewpoint: 11.1°C (52°F) [RH = 87%]
Pressure (altimeter): 30.40 inches Hg (1029.5 mb)
[Sea-level pressure: 1029.3 mb]
Winds: from the NNE (30 degrees) at 5 MPH (4 knots; 2.1 m/s)
Visibility: 10 or more miles (16+ km)
Ceiling: at least 12,000 feet AGL
Clouds: scattered clouds at 6000 feet AGL
Weather: no significant weather observed at this time

METAR text: KJAX 222256Z 04006KT 10SM FEW037 BKN060 15/11 A3040 RMK AO2 SLP293 T01500111
Conditions at: KJAX (JACKSONVILLE , FL, US) observed 2256 UTC 22 January 2019
Temperature: 15.0°C (59°F)
Dewpoint: 11.1°C (52°F) [RH = 77%]
Pressure (altimeter): 30.40 inches Hg (1029.5 mb)
[Sea-level pressure: 1029.3 mb]
Winds: from the NE (40 degrees) at 7 MPH (6 knots; 3.1 m/s)
Visibility: 10 or more miles (16+ km)
Ceiling: 6000 feet AGL
Clouds: few clouds at 3700 feet AGL
broken clouds at 6000 feet AGL
Weather: no significant weather observed at this time

METAR text: KJAX 222156Z 05011KT 10SM SCT037 BKN060 17/11 A3040 RMK AO2 SLP295 T01720111
Conditions at: KJAX (JACKSONVILLE , FL, US) observed 2156 UTC 22 January 2019
Temperature: 17.2°C (63°F)
Dewpoint: 11.1°C (52°F) [RH = 67%]
Pressure (altimeter): 30.40 inches Hg (1029.5 mb)
[Sea-level pressure: 1029.5 mb]
Winds: from the NE (50 degrees) at 13 MPH (11 knots; 5.7 m/s)
Visibility: 10 or more miles (16+ km)
Ceiling: 6000 feet AGL
Clouds: scattered clouds at 3700 feet AGL
broken clouds at 6000 feet AGL
Weather: no significant weather observed at this time

METAR text: KJAX 222056Z 07014G19KT 10SM SCT037 BKN060 19/11 A3040 RMK AO2 SLP296 6//// T01890111
Conditions at: KJAX (JACKSONVILLE , FL, US) observed 2056 UTC 22 January 2019
Temperature: 18.9°C (66°F)
Dewpoint: 11.1°C (52°F) [RH = 61%]
Pressure (altimeter): 30.40 inches Hg (1029.5 mb)
[Sea-level pressure: 1029.6 mb]
Winds: from the ENE (70 degrees) at 16 MPH (14 knots; 7.2 m/s)
gusting to 22 MPH (19 knots; 9.8 m/s)
Visibility: 10 or more miles (16+ km)
Ceiling: 6000 feet AGL
Clouds: scattered clouds at 3700 feet AGL
broken clouds at 6000 feet AGL
Weather: no significant weather observed at this time

METAR text: KJAX 221956Z 09011KT 10SM SCT040 BKN060 19/11 A3042
Conditions at: KJAX (JACKSONVILLE , FL, US) observed 1956 UTC 22 January 2019
Temperature: 19.0°C (66°F)
Dewpoint: 11.0°C (52°F) [RH = 60%]
Pressure (altimeter): 30.42 inches Hg (1030.2 mb)
Winds: from the E (90 degrees) at 13 MPH (11 knots; 5.7 m/s)
Visibility: 10 or more miles (16+ km)
Ceiling: 6000 feet AGL
Clouds: scattered clouds at 4000 feet AGL
broken clouds at 6000 feet AGL
Weather: no significant weather observed at this time

METAR text: KJAX 221856Z 10013G24KT 10SM FEW035 BKN050 20/09 A3043 RMK AO2 SLP304 T02000094
Conditions at: KJAX (JACKSONVILLE , FL, US) observed 1856 UTC 22 January 2019
Temperature: 20.0°C (68°F)
Dewpoint: 9.4°C (49°F) [RH = 50%]
Pressure (altimeter): 30.43 inches Hg (1030.6 mb)
[Sea-level pressure: 1030.4 mb]
Winds: from the E (100 degrees) at 15 MPH (13 knots; 6.7 m/s)
gusting to 28 MPH (24 knots; 12.3 m/s)
Visibility: 10 or more miles (16+ km)
Ceiling: 5000 feet AGL
Clouds: few clouds at 3500 feet AGL
broken clouds at 5000 feet AGL
Weather: no significant weather observed at this time

METAR text: KJAX 221756Z 10014KT 10SM FEW030 BKN050 20/09 A3046 RMK AO2 SLP313 T02000089 10200 20089 58003
Conditions at: KJAX (JACKSONVILLE , FL, US) observed 1756 UTC 22 January 2019
Temperature: 20.0°C (68°F)
Dewpoint: 8.9°C (48°F) [RH = 49%]
Pressure (altimeter): 30.46 inches Hg (1031.6 mb)
[Sea-level pressure: 1031.3 mb]
Winds: from the E (100 degrees) at 16 MPH (14 knots; 7.2 m/s)
Visibility: 10 or more miles (16+ km)
Ceiling: 5000 feet AGL
Clouds: few clouds at 3000 feet AGL
broken clouds at 5000 feet AGL
Weather: no significant weather observed at this time

METAR text: KJAX 221656Z 11011KT 10SM FEW030 BKN045 18/08 A3048 RMK AO2 SLP321 T01830083
Conditions at: KJAX (JACKSONVILLE , FL, US) observed 1656 UTC 22 January 2019
Temperature: 18.3°C (65°F)
Dewpoint: 8.3°C (47°F) [RH = 52%]
Pressure (altimeter): 30.48 inches Hg (1032.3 mb)
[Sea-level pressure: 1032.1 mb]
Winds: from the ESE (110 degrees) at 13 MPH (11 knots; 5.7 m/s)
Visibility: 10 or more miles (16+ km)
Ceiling: 4500 feet AGL
Clouds: few clouds at 3000 feet AGL
broken clouds at 4500 feet AGL
Weather: no significant weather observed at this time

METAR text: KJAX 221556Z 10011KT 10SM FEW030 BKN045 18/08 A3048 RMK AO2 SLP320 T01780083
Conditions at: KJAX (JACKSONVILLE , FL, US) observed 1556 UTC 22 January 2019
Temperature: 17.8°C (64°F)
Dewpoint: 8.3°C (47°F) [RH = 54%]
Pressure (altimeter): 30.48 inches Hg (1032.3 mb)
[Sea-level pressure: 1032.0 mb]
Winds: from the E (100 degrees) at 13 MPH (11 knots; 5.7 m/s)
Visibility: 10 or more miles (16+ km)
Ceiling: 4500 feet AGL
Clouds: few clouds at 3000 feet AGL
broken clouds at 4500 feet AGL
Weather: no significant weather observed at this time

METAR text: KJAX 221456Z 04008KT 10SM SCT040 14/10 A3046 RMK AO2 SLP316 T01440100 51009
Conditions at: KJAX (JACKSONVILLE , FL, US) observed 1456 UTC 22 January 2019
Temperature: 14.4°C (58°F)
Dewpoint: 10.0°C (50°F) [RH = 75%]
Pressure (altimeter): 30.46 inches Hg (1031.6 mb)
[Sea-level pressure: 1031.6 mb]
Winds: from the NE (40 degrees) at 9 MPH (8 knots; 4.1 m/s)
Visibility: 10 or more miles (16+ km)
Ceiling: at least 12,000 feet AGL
Clouds: scattered clouds at 4000 feet AGL
Weather: no significant weather observed at this time

METAR text: KJAX 221356Z 04009KT 10SM SCT040 13/10 A3046 RMK AO2 SLP315 T01280100
Conditions at: KJAX (JACKSONVILLE , FL, US) observed 1356 UTC 22 January 2019
Temperature: 12.8°C (55°F)
Dewpoint: 10.0°C (50°F) [RH = 83%]
Pressure (altimeter): 30.46 inches Hg (1031.6 mb)
[Sea-level pressure: 1031.5 mb]
Winds: from the NE (40 degrees) at 10 MPH (9 knots; 4.6 m/s)
Visibility: 10 or more miles (16+ km)
Ceiling: at least 12,000 feet AGL
Clouds: scattered clouds at 4000 feet AGL
Weather: no significant weather observed at this time

METAR text: KJAX 221256Z 04008KT 10SM SCT040 10/08 A3045 RMK AO2 SLP313 T01000083
Conditions at: KJAX (JACKSONVILLE , FL, US) observed 1256 UTC 22 January 2019
Temperature: 10.0°C (50°F)
Dewpoint: 8.3°C (47°F) [RH = 89%]
Pressure (altimeter): 30.45 inches Hg (1031.2 mb)
[Sea-level pressure: 1031.3 mb]
Winds: from the NE (40 degrees) at 9 MPH (8 knots; 4.1 m/s)
Visibility: 10 or more miles (16+ km)
Ceiling: at least 12,000 feet AGL
Clouds: scattered clouds at 4000 feet AGL
Weather: no significant weather observed at this time

METAR text: KJAX 221156Z 05008KT 10SM FEW035 SCT250 09/07 A3044 RMK AO2 SLP307 T00940072 10094 20022 53006
Conditions at: KJAX (JACKSONVILLE , FL, US) observed 1156 UTC 22 January 2019
Temperature: 9.4°C (49°F)
Dewpoint: 7.2°C (45°F) [RH = 86%]
Pressure (altimeter): 30.44 inches Hg (1030.9 mb)
[Sea-level pressure: 1030.7 mb]
Winds: from the NE (50 degrees) at 9 MPH (8 knots; 4.1 m/s)
Visibility: 10 or more miles (16+ km)
Ceiling: at least 12,000 feet AGL
Clouds: few clouds at 3500 feet AGL
scattered clouds at 25000 feet AGL
Weather: no significant weather observed at this time

METAR text: KJAX 221056Z 04008KT 10SM BKN250 08/07 A3042 RMK AO2 SLP303 T00830067
Conditions at: KJAX (JACKSONVILLE , FL, US) observed 1056 UTC 22 January 2019
Temperature: 8.3°C (47°F)
Dewpoint: 6.7°C (44°F) [RH = 90%]
Pressure (altimeter): 30.42 inches Hg (1030.2 mb)
[Sea-level pressure: 1030.3 mb]
Winds: from the NE (40 degrees) at 9 MPH (8 knots; 4.1 m/s)
Visibility: 10 or more miles (16+ km)
Ceiling: 25000 feet AGL
Clouds: broken clouds at 25000 feet AGL
Weather: no significant weather observed at this time

METAR text: KJAX 220956Z 02005KT 10SM BKN250 04/03 A3042 RMK AO2 SLP300 T00440033
Conditions at: KJAX (JACKSONVILLE , FL, US) observed 0956 UTC 22 January 2019
Temperature: 4.4°C (40°F)
Dewpoint: 3.3°C (38°F) [RH = 93%]
Pressure (altimeter): 30.42 inches Hg (1030.2 mb)
[Sea-level pressure: 1030.0 mb]
Winds: from the NNE (20 degrees) at 6 MPH (5 knots; 2.6 m/s)
Visibility: 10 or more miles (16+ km)
Ceiling: 25000 feet AGL
Clouds: broken clouds at 25000 feet AGL
Weather: no significant weather observed at this time

METAR text: KJAX 220856Z 36004KT 10SM BKN250 03/02 A3042 RMK AO2 SLP300 T00330017 55000
Conditions at: KJAX (JACKSONVILLE , FL, US) observed 0856 UTC 22 January 2019
Temperature: 3.3°C (38°F)
Dewpoint: 1.7°C (35°F) [RH = 89%]
Pressure (altimeter): 30.42 inches Hg (1030.2 mb)
[Sea-level pressure: 1030.0 mb]
Winds: from the N (360 degrees) at 5 MPH (4 knots; 2.1 m/s)
Visibility: 10 or more miles (16+ km)
Ceiling: 25000 feet AGL
Clouds: broken clouds at 25000 feet AGL
Weather: no significant weather observed at this time

METAR text: KJAX 220756Z 35005KT 10SM BKN250 03/02 A3042 RMK AO2 SLP300 T00330017
Conditions at: KJAX (JACKSONVILLE , FL, US) observed 0756 UTC 22 January 2019
Temperature: 3.3°C (38°F)
Dewpoint: 1.7°C (35°F) [RH = 89%]
Pressure (altimeter): 30.42 inches Hg (1030.2 mb)
[Sea-level pressure: 1030.0 mb]
Winds: from the N (350 degrees) at 6 MPH (5 knots; 2.6 m/s)
Visibility: 10 or more miles (16+ km)
Ceiling: 25000 feet AGL
Clouds: broken clouds at 25000 feet AGL
Weather: no significant weather observed at this time

Forecast for: KJAX (JACKSONVILLE , FL, US)
Text: KJAX 231720Z 2318/2418 17012G20KT P6SM SCT030 BKN070
Forecast period: 1800 to 2200 UTC 23 January 2019
Forecast type: FROM: standard forecast or significant change
Winds: from the S (170 degrees) at 14 MPH (12 knots; 6.2 m/s)
gusting to 23 MPH (20 knots; 10.3 m/s)
Visibility: 6 or more miles 10+ km)
Ceiling: 7000 feet AGL
Clouds: scattered clouds at 3000 feet AGL
broken clouds at 7000 feet AGL
Weather: no significant weather forecast for this period
Text: FM232200 15012KT P6SM BKN035 OVC100
Forecast period: 2200 UTC 23 January 2019 to 0700 UTC 24 January 2019
Forecast type: FROM: standard forecast or significant change
Winds: from the SSE (150 degrees) at 14 MPH (12 knots; 6.2 m/s)
Visibility: 6 or more miles 10+ km)
Ceiling: 3500 feet AGL
Clouds: broken clouds at 3500 feet AGL
overcast cloud deck at 10000 feet AGL
Weather: no significant weather forecast for this period
Text: FM240700 19015G25KT 5SM -SHRA VCTS SCT015 OVC025CB
Forecast period: 0700 to 1500 UTC 24 January 2019
Forecast type: FROM: standard forecast or significant change
Winds: from the S (190 degrees) at 17 MPH (15 knots; 7.7 m/s)
gusting to 29 MPH (25 knots; 12.9 m/s)
Visibility: 5 miles (8 km)
Ceiling: 2500 feet AGL
Clouds: scattered clouds at 1500 feet AGL
overcast cloud deck at 2500 feet AGL
Weather: -SHRA VCTS  (light rain showers, thunderstorm in vicinity)
Text: FM241500 27012G22KT P6SM SCT040 BKN250
Forecast period: 1500 to 1800 UTC 24 January 2019
Forecast type: FROM: standard forecast or significant change
Winds: from the W (270 degrees) at 14 MPH (12 knots; 6.2 m/s)
gusting to 25 MPH (22 knots; 11.3 m/s)
Visibility: 6 or more miles 10+ km)
Ceiling: 25000 feet AGL
Clouds: scattered clouds at 4000 feet AGL
broken clouds at 25000 feet AGL
Weather: no significant weather forecast for this period